Time;durP1;ratioP1;P1;durP2;ratioP2;P2;SDS_P1;SDS_P2;PMS_P1;PMS_P2;Temp;Humidity;BMP_temperature;BMP_pressure;BME280_temperature;BME280_humidity;BME280_pressure;Samples;Min_cycle;Max_cycle;Signal;HPM_P1;HPM_P2
2022/06/16 00:00:47;;;;;;;8.07;3.70;;;16.30;99.90;;;;;;5069865;28;20036;-46
2022/06/16 00:03:13;;;;;;;7.07;3.90;;;16.30;99.90;;;;;;5069875;28;20067;-46
2022/06/16 00:05:43;;;;;;;8.68;3.70;;;16.30;99.90;;;;;;5069769;28;20094;-49
2022/06/16 00:08:11;;;;;;;8.13;3.80;;;16.30;99.90;;;;;;5069488;28;20037;-45
2022/06/16 00:11:15;;;;;;;6.90;3.45;;;16.20;99.90;;;;;;5069370;28;20499;-48
2022/06/16 00:13:24;;;;;;;9.75;3.83;;;16.10;99.90;;;;;;5068958;28;20041;-44
2022/06/16 00:15:50;;;;;;;9.13;3.78;;;16.30;99.90;;;;;;5051856;28;20460;-46
2022/06/16 00:18:15;;;;;;;6.85;3.80;;;16.30;99.90;;;;;;5068399;28;20032;-47
2022/06/16 00:20:42;;;;;;;11.07;4.00;;;16.20;99.90;;;;;;5069373;28;20344;-45
2022/06/16 00:23:08;;;;;;;8.75;4.03;;;16.30;99.90;;;;;;5069473;28;20097;-47
2022/06/16 00:25:34;;;;;;;7.25;3.88;;;16.20;99.90;;;;;;5050332;28;20094;-47
2022/06/16 00:28:00;;;;;;;9.32;4.20;;;16.20;99.90;;;;;;5069496;28;20068;-46
2022/06/16 00:30:25;;;;;;;10.07;3.70;;;16.20;99.90;;;;;;5069536;28;20041;-47
2022/06/16 00:32:51;;;;;;;7.97;4.00;;;16.00;99.90;;;;;;5069034;28;20043;-46
2022/06/16 00:35:17;;;;;;;9.18;3.88;;;16.00;99.90;;;;;;5051509;28;20043;-46
2022/06/16 00:37:42;;;;;;;8.45;3.83;;;15.90;99.90;;;;;;5069597;28;20067;-45
2022/06/16 00:40:09;;;;;;;12.70;3.70;;;15.80;99.90;;;;;;5068961;28;20037;-47
2022/06/16 00:42:36;;;;;;;8.98;3.58;;;15.90;99.90;;;;;;5069936;28;20035;-47
2022/06/16 00:45:02;;;;;;;6.97;3.33;;;16.00;99.90;;;;;;5050860;28;20044;-46
2022/06/16 00:47:30;;;;;;;9.98;3.58;;;16.00;99.90;;;;;;5051419;28;20051;-45
2022/06/16 00:50:00;;;;;;;7.47;3.47;;;16.00;99.90;;;;;;5050566;28;20056;-45
2022/06/16 00:52:29;;;;;;;6.70;3.20;;;15.90;99.90;;;;;;5068953;28;20053;-45
2022/06/16 00:55:10;;;;;;;7.63;3.45;;;15.90;99.90;;;;;;5070916;28;20056;-44
2022/06/16 00:57:48;;;;;;;11.60;3.92;;;15.90;99.90;;;;;;5073237;28;20110;-45
2022/06/16 01:00:43;;;;;;;8.05;3.45;;;15.80;99.90;;;;;;5072646;28;20051;-46
2022/06/16 01:03:09;;;;;;;5.97;3.20;;;15.80;99.90;;;;;;5072699;28;20043;-45
2022/06/16 01:05:34;;;;;;;9.50;3.38;;;15.80;99.90;;;;;;5072606;28;20420;-47
2022/06/16 01:08:01;;;;;;;6.78;3.25;;;15.60;99.90;;;;;;5072366;28;20577;-49
2022/06/16 01:10:37;;;;;;;7.85;3.70;;;15.50;99.90;;;;;;5054789;28;20427;-45
2022/06/16 01:16:12;;;;;;;8.40;2.92;;;15.40;99.90;;;;;;5054296;28;20058;-44
2022/06/16 01:19:13;;;;;;;8.13;3.22;;;15.50;99.90;;;;;;5072524;28;20404;-45
2022/06/16 01:21:38;;;;;;;7.38;3.40;;;15.50;99.90;;;;;;5072593;28;20039;-46
2022/06/16 01:24:23;;;;;;;8.35;3.33;;;15.40;99.90;;;;;;5072376;28;20032;-45
2022/06/16 01:26:48;;;;;;;;;;;15.40;99.90;;;;;;5072612;28;20052;-48
2022/06/16 01:29:47;;;;;;;7.72;3.10;;;15.30;99.90;;;;;;5072108;28;19924;-49
2022/06/16 01:32:37;;;;;;;8.55;3.90;;;15.30;99.90;;;;;;5071932;28;20044;-47
2022/06/16 01:35:26;;;;;;;7.88;3.33;;;15.30;99.90;;;;;;5071641;28;20089;-45
2022/06/16 01:38:06;;;;;;;7.05;3.30;;;15.20;99.90;;;;;;5072224;28;20111;-46
2022/06/16 01:40:48;;;;;;;7.72;3.50;;;15.20;99.90;;;;;;5070721;28;20056;-47
2022/06/16 01:43:34;;;;;;;9.27;3.33;;;15.10;99.90;;;;;;5071517;28;20032;-45
2022/06/16 01:46:22;;;;;;;6.82;3.47;;;15.10;99.90;;;;;;5071797;28;20040;-46
2022/06/16 01:48:53;;;;;;;8.98;3.47;;;15.00;99.90;;;;;;5053868;28;20041;-45
2022/06/16 01:51:25;;;;;;;5.80;3.38;;;15.00;99.90;;;;;;5071850;28;20492;-49
2022/06/16 01:54:02;;;;;;;8.68;3.28;;;15.00;99.90;;;;;;5071617;28;20040;-45
2022/06/16 01:56:33;;;;;;;7.45;3.50;;;15.00;99.90;;;;;;5054065;28;20028;-46
2022/06/16 01:59:08;;;;;;;7.25;3.40;;;14.90;99.90;;;;;;5071803;28;20032;-46
2022/06/16 02:01:40;;;;;;;6.30;3.40;;;14.80;99.90;;;;;;5071612;28;20142;-47
2022/06/16 02:04:18;;;;;;;8.27;3.58;;;14.70;99.90;;;;;;5071773;28;20068;-44
2022/06/16 02:06:48;;;;;;;8.68;3.88;;;14.70;99.90;;;;;;5070731;28;20824;-45
2022/06/16 02:09:25;;;;;;;8.13;3.60;;;14.70;99.90;;;;;;5071430;28;20037;-48
2022/06/16 02:11:53;;;;;;;6.60;3.47;;;14.70;99.90;;;;;;5070375;28;20051;-44
2022/06/16 02:14:32;;;;;;;10.02;3.85;;;14.70;99.90;;;;;;5071285;28;20095;-46
2022/06/16 02:16:58;;;;;;;8.00;3.97;;;14.60;99.90;;;;;;5071581;28;20044;-43
2022/06/16 02:19:25;;;;;;;7.15;3.50;;;14.50;99.90;;;;;;5071586;28;20165;-44
2022/06/16 02:21:52;;;;;;;7.20;3.65;;;14.50;99.90;;;;;;5071332;28;20040;-47
2022/06/16 02:24:24;;;;;;;8.07;3.70;;;14.50;99.90;;;;;;5053383;28;20495;-49
2022/06/16 02:26:52;;;;;;;6.65;3.80;;;14.30;99.90;;;;;;5070815;28;20165;-46
2022/06/16 02:29:33;;;;;;;9.35;4.10;;;14.40;99.90;;;;;;5071109;28;20040;-45
2022/06/16 02:32:31;;;;;;;9.50;3.72;;;14.40;99.90;;;;;;5071144;28;20395;-45
2022/06/16 02:35:08;;;;;;;7.72;4.10;;;14.40;99.90;;;;;;5052972;28;20040;-46
2022/06/16 02:37:45;;;;;;;7.68;3.80;;;14.20;99.90;;;;;;5070978;28;20124;-45
2022/06/16 02:40:44;;;;;;;7.82;3.92;;;14.20;99.90;;;;;;5071179;28;20383;-46
2022/06/16 02:43:22;;;;;;;10.27;4.13;;;14.10;99.90;;;;;;5070001;28;20037;-45
2022/06/16 02:45:53;;;;;;;8.52;4.20;;;14.10;99.90;;;;;;5070281;28;20035;-46
2022/06/16 02:48:45;;;;;;;8.98;4.15;;;14.10;99.90;;;;;;5070921;28;20040;-44
2022/06/16 02:51:18;;;;;;;11.10;4.53;;;14.10;99.90;;;;;;5070293;28;20075;-46
2022/06/16 02:54:20;;;;;;;8.20;4.80;;;13.90;99.90;;;;;;5070760;28;20056;-45
2022/06/16 02:57:06;;;;;;;9.25;4.68;;;13.90;99.90;;;;;;5070377;28;20029;-45
2022/06/16 02:59:51;;;;;;;9.80;4.75;;;13.70;99.90;;;;;;5070714;28;20044;-45
2022/06/16 03:02:19;;;;;;;10.57;5.10;;;13.70;99.90;;;;;;5071069;28;20080;-48
2022/06/16 03:04:51;;;;;;;9.57;5.20;;;13.50;99.90;;;;;;5069183;28;20530;-44
2022/06/16 03:07:18;;;;;;;9.90;4.93;;;13.50;99.90;;;;;;5070522;28;20048;-47
2022/06/16 03:09:44;;;;;;;12.73;5.22;;;13.60;99.90;;;;;;5070341;28;20036;-45
2022/06/16 03:12:12;;;;;;;10.02;5.50;;;13.70;99.90;;;;;;5070462;28;20379;-48
2022/06/16 03:14:38;;;;;;;11.27;5.35;;;13.70;99.90;;;;;;5051894;28;20044;-48
2022/06/16 03:17:05;;;;;;;9.50;5.05;;;13.70;99.90;;;;;;5070293;28;20112;-44
2022/06/16 03:19:31;;;;;;;9.93;5.05;;;13.60;99.90;;;;;;5069967;28;20037;-44
2022/06/16 03:21:57;;;;;;;11.48;5.50;;;13.60;99.90;;;;;;5068978;28;20032;-46
2022/06/16 03:24:23;;;;;;;8.27;5.00;;;13.60;99.90;;;;;;5070295;28;20044;-47
2022/06/16 03:26:49;;;;;;;9.52;5.47;;;13.60;99.90;;;;;;5069663;28;20499;-46
2022/06/16 03:29:16;;;;;;;10.65;5.10;;;13.50;99.90;;;;;;5068419;28;20052;-45
2022/06/16 03:31:42;;;;;;;8.90;5.13;;;13.50;99.90;;;;;;5069855;28;20468;-46
2022/06/16 03:34:07;;;;;;;9.80;5.55;;;13.50;99.90;;;;;;5070250;28;20033;-44
2022/06/16 03:36:34;;;;;;;12.00;5.25;;;13.60;99.90;;;;;;5069909;28;20072;-45
2022/06/16 03:39:01;;;;;;;8.82;5.15;;;13.60;99.90;;;;;;5051733;28;20051;-44
2022/06/16 03:41:27;;;;;;;9.77;5.65;;;13.70;99.90;;;;;;5070355;28;20048;-49
2022/06/16 03:43:53;;;;;;;8.05;5.15;;;13.70;99.90;;;;;;5050890;28;20474;-45
2022/06/16 03:46:18;;;;;;;10.23;5.32;;;13.70;99.90;;;;;;5069735;28;20086;-48
2022/06/16 03:48:44;;;;;;;9.60;5.00;;;13.80;99.90;;;;;;5069542;28;20474;-46
2022/06/16 03:51:10;;;;;;;9.23;5.05;;;13.70;99.90;;;;;;5069719;28;20139;-45
2022/06/16 03:53:37;;;;;;;10.85;5.32;;;13.80;99.90;;;;;;5069930;28;20036;-45
2022/06/16 03:56:04;;;;;;;10.13;5.05;;;13.80;99.90;;;;;;5069711;28;20039;-46
2022/06/16 03:58:29;;;;;;;14.85;6.15;;;13.80;99.90;;;;;;5069547;28;20036;-44
2022/06/16 04:00:55;;;;;;;9.13;5.50;;;14.00;99.90;;;;;;5069686;28;20543;-44
2022/06/16 04:06:05;;;;;;;8.88;5.20;;;14.10;99.90;;;;;;5069649;28;20059;-44
2022/06/16 04:08:31;;;;;;;9.05;5.25;;;14.20;99.90;;;;;;5051811;28;20033;-45
2022/06/16 04:10:56;;;;;;;10.38;5.20;;;14.20;99.90;;;;;;5069490;28;20044;-46
2022/06/16 04:13:22;;;;;;;7.63;5.10;;;14.20;99.90;;;;;;5069274;28;20614;-44
2022/06/16 04:15:50;;;;;;;7.70;4.93;;;14.30;99.90;;;;;;5067266;28;20468;-46
2022/06/16 04:18:20;;;;;;;7.63;4.50;;;14.30;99.90;;;;;;5069463;28;20036;-46
2022/06/16 04:20:47;;;;;;;8.68;5.15;;;14.20;99.90;;;;;;5069512;28;20037;-46
2022/06/16 04:23:13;;;;;;;11.60;5.28;;;14.20;99.90;;;;;;5069746;28;20052;-46
2022/06/16 04:25:39;;;;;;;9.50;5.35;;;14.10;99.90;;;;;;5069548;28;20035;-48
2022/06/16 04:28:07;;;;;;;9.80;4.50;;;14.30;99.90;;;;;;5069057;28;20053;-45
2022/06/16 04:30:33;;;;;;;9.70;4.95;;;14.20;99.90;;;;;;5072032;28;20502;-45
2022/06/16 04:33:00;;;;;;;9.38;4.30;;;14.20;99.90;;;;;;5073011;28;20078;-49
2022/06/16 04:35:27;;;;;;;10.15;3.88;;;14.10;99.90;;;;;;5073579;28;20044;-46
2022/06/16 04:37:53;;;;;;;7.70;3.80;;;14.10;99.90;;;;;;5073443;28;20028;-48
2022/06/16 04:40:20;;;;;;;10.00;4.40;;;14.00;99.90;;;;;;5055089;28;20041;-48
2022/06/16 04:42:45;;;;;;;9.02;3.92;;;14.00;99.90;;;;;;5073260;28;20479;-45
2022/06/16 04:45:12;;;;;;;8.50;4.22;;;13.90;99.90;;;;;;5072942;28;20043;-50
2022/06/16 04:47:38;;;;;;;8.82;3.97;;;13.90;99.90;;;;;;5054889;28;20064;-45
2022/06/16 04:50:06;;;;;;;8.23;3.72;;;14.00;99.90;;;;;;5072759;28;20507;-45
2022/06/16 04:52:32;;;;;;;8.20;4.20;;;13.90;99.90;;;;;;5073083;28;20092;-49
2022/06/16 04:54:57;;;;;;;10.63;4.65;;;14.00;99.90;;;;;;5073285;28;20067;-46
2022/06/16 04:57:23;;;;;;;8.15;4.43;;;14.00;99.90;;;;;;5072876;28;20040;-45
2022/06/16 04:59:49;;;;;;;10.13;4.43;;;14.10;99.90;;;;;;5072039;28;20048;-47
2022/06/16 05:02:15;;;;;;;11.15;5.03;;;14.10;99.90;;;;;;5073166;28;20052;-46
2022/06/16 05:04:42;;;;;;;7.82;4.72;;;14.20;99.90;;;;;;5073063;28;20475;-47
2022/06/16 05:07:08;;;;;;;10.80;4.15;;;14.20;99.90;;;;;;5072916;28;20036;-44
2022/06/16 05:09:34;;;;;;;9.38;4.20;;;14.30;99.90;;;;;;5073051;28;20039;-44
2022/06/16 05:12:00;;;;;;;12.75;4.70;;;14.30;99.90;;;;;;5072602;28;20043;-44
2022/06/16 05:14:25;;;;;;;11.02;5.85;;;14.40;99.90;;;;;;5072400;28;20037;-45
2022/06/16 05:16:51;;;;;;;13.77;5.95;;;14.40;99.90;;;;;;5072606;28;20036;-46
2022/06/16 05:19:17;;;;;;;14.57;6.22;;;14.40;99.90;;;;;;5054937;28;20097;-45
2022/06/16 05:21:43;;;;;;;12.05;5.82;;;14.40;99.90;;;;;;5071329;28;20055;-47
2022/06/16 05:24:09;;;;;;;11.45;5.60;;;14.40;99.90;;;;;;5072468;28;20514;-47
2022/06/16 05:26:35;;;;;;;11.90;5.60;;;14.40;99.90;;;;;;5072349;28;20076;-47
2022/06/16 05:29:01;;;;;;;8.15;4.82;;;14.50;99.90;;;;;;5071987;28;20083;-46
2022/06/16 05:31:26;;;;;;;8.38;3.72;;;14.60;99.90;;;;;;5072504;28;20496;-45
2022/06/16 05:33:52;;;;;;;9.77;3.60;;;14.60;99.90;;;;;;5054457;28;20037;-45
2022/06/16 05:36:18;;;;;;;8.30;3.30;;;14.60;99.90;;;;;;5072383;28;20032;-46
2022/06/16 05:38:44;;;;;;;7.15;3.40;;;14.70;99.90;;;;;;5072192;28;20480;-46
2022/06/16 05:41:16;;;;;;;6.03;2.90;;;14.80;99.90;;;;;;5071089;28;20059;-47
2022/06/16 05:43:42;;;;;;;7.65;2.83;;;14.90;99.90;;;;;;5071985;28;20472;-46
2022/06/16 05:46:19;;;;;;;7.60;2.67;;;14.90;99.90;;;;;;5072419;28;20054;-44
2022/06/16 05:48:45;;;;;;;7.80;3.42;;;14.90;99.90;;;;;;5072307;28;20443;-44
2022/06/16 05:51:13;;;;;;;7.72;2.90;;;14.90;99.90;;;;;;5072142;28;20076;-45
2022/06/16 05:53:39;;;;;;;6.20;3.15;;;15.00;99.90;;;;;;5072318;28;20033;-48
2022/06/16 05:56:05;;;;;;;6.22;2.80;;;14.90;99.90;;;;;;5070579;28;20037;-44
2022/06/16 05:58:31;;;;;;;6.85;2.25;;;15.00;99.90;;;;;;5070270;28;20037;-45
2022/06/16 06:00:56;;;;;;;7.38;2.58;;;15.00;99.90;;;;;;5072111;28;20051;-45
2022/06/16 06:03:23;;;;;;;7.28;2.88;;;15.00;99.90;;;;;;5071832;28;20048;-44
2022/06/16 06:05:48;;;;;;;8.48;2.88;;;15.10;99.90;;;;;;5071466;28;20387;-45
2022/06/16 06:16:35;;;;;;;6.38;2.65;;;15.20;99.90;;;;;;5071290;28;20092;-46
2022/06/16 06:19:24;;;;;;;7.72;2.30;;;15.30;99.90;;;;;;5053324;28;20048;-45
2022/06/16 06:22:06;;;;;;;3.40;1.90;;;15.30;99.90;;;;;;5071306;28;20051;-45
2022/06/16 06:24:36;;;;;;;7.10;2.65;;;15.40;99.90;;;;;;5053651;28;20414;-44
2022/06/16 06:27:39;;;;;;;6.43;1.80;;;15.50;99.90;;;;;;5069696;28;20048;-47
2022/06/16 06:30:13;;;;;;;5.82;2.05;;;15.60;99.90;;;;;;4953957;28;20054;-45
2022/06/16 06:32:39;;;;;;;5.55;1.85;;;15.70;99.90;;;;;;5055927;28;20056;-47
2022/06/16 06:35:05;;;;;;;6.13;1.80;;;15.70;99.90;;;;;;5071261;28;20357;-45
2022/06/16 06:37:31;;;;;;;9.35;2.50;;;15.70;99.90;;;;;;5071202;28;20086;-44
2022/06/16 06:39:57;;;;;;;5.82;1.67;;;15.80;99.90;;;;;;5071284;28;20032;-43
2022/06/16 06:42:23;;;;;;;7.32;2.28;;;15.90;99.90;;;;;;5071297;28;20036;-45
2022/06/16 06:44:50;;;;;;;7.47;1.85;;;15.90;99.90;;;;;;5070742;28;20037;-47
2022/06/16 06:47:20;;;;;;;4.85;1.50;;;15.90;99.90;;;;;;5070569;28;20079;-45
2022/06/16 06:49:46;;;;;;;7.03;1.60;;;16.00;99.90;;;;;;5071079;28;20124;-45
2022/06/16 06:52:12;;;;;;;5.57;1.80;;;16.00;99.90;;;;;;5070569;28;20115;-45
2022/06/16 06:54:38;;;;;;;6.53;1.90;;;16.10;99.90;;;;;;5070478;28;20119;-46
2022/06/16 06:57:04;;;;;;;4.95;1.92;;;16.10;99.90;;;;;;5070757;28;20119;-47
2022/06/16 06:59:30;;;;;;;4.22;1.52;;;16.10;99.90;;;;;;5070801;28;20403;-48
2022/06/16 07:01:56;;;;;;;5.43;1.73;;;16.20;99.90;;;;;;5035962;28;20046;-46
2022/06/16 07:04:21;;;;;;;2.90;1.20;;;16.30;99.90;;;;;;5070360;28;20040;-48
2022/06/16 07:06:48;;;;;;;4.43;1.20;;;16.40;99.90;;;;;;5070753;28;20430;-45
2022/06/16 07:09:17;;;;;;;4.07;1.02;;;16.40;99.90;;;;;;5070699;28;20040;-46
2022/06/16 07:11:43;;;;;;;5.18;1.77;;;16.40;99.90;;;;;;5070570;28;20052;-48
2022/06/16 07:14:09;;;;;;;5.05;1.70;;;16.40;99.90;;;;;;5070050;28;20040;-45
2022/06/16 07:16:36;;;;;;;3.53;1.40;;;16.50;99.90;;;;;;5070078;28;20496;-46
2022/06/16 07:19:02;;;;;;;4.85;1.63;;;16.50;99.90;;;;;;5070504;28;20471;-47
2022/06/16 07:21:29;;;;;;;6.53;1.77;;;16.60;99.90;;;;;;5070414;28;20112;-48
2022/06/16 07:23:55;;;;;;;5.85;1.40;;;16.70;99.90;;;;;;5070428;28;20040;-48
2022/06/16 07:26:21;;;;;;;4.68;1.23;;;16.70;99.90;;;;;;5052320;28;20368;-47
2022/06/16 07:28:47;;;;;;;4.68;1.40;;;16.80;99.90;;;;;;5070543;28;20044;-46
2022/06/16 07:31:14;;;;;;;2.25;0.90;;;16.80;99.90;;;;;;5070294;28;20040;-48
2022/06/16 07:33:40;;;;;;;5.03;1.17;;;16.90;99.90;;;;;;5070197;28;20032;-48
2022/06/16 07:36:06;;;;;;;3.53;0.90;;;16.90;99.90;;;;;;5070193;28;20043;-45
2022/06/16 07:38:32;;;;;;;4.90;1.20;;;17.00;99.90;;;;;;5070241;28;20060;-45
2022/06/16 07:43:42;;;;;;;3.72;0.90;;;17.10;99.90;;;;;;5069630;28;20097;-46
2022/06/16 07:46:07;;;;;;;3.83;1.02;;;17.10;99.90;;;;;;5069648;28;20040;-46
2022/06/16 07:48:33;;;;;;;4.75;0.90;;;17.20;99.90;;;;;;5070331;28;20086;-44
2022/06/16 07:50:59;;;;;;;3.83;1.23;;;17.20;99.90;;;;;;5069984;28;20032;-47
2022/06/16 07:53:25;;;;;;;2.97;0.93;;;17.30;99.90;;;;;;5070158;28;20417;-49
2022/06/16 07:55:51;;;;;;;4.05;1.15;;;17.40;99.90;;;;;;5069325;28;20032;-47
2022/06/16 07:58:16;;;;;;;4.55;1.05;;;17.50;99.90;;;;;;5070056;28;20047;-46
2022/06/16 08:00:42;;;;;;;2.70;1.08;;;17.40;99.90;;;;;;5070089;28;20047;-46
2022/06/16 08:03:08;;;;;;;5.35;1.00;;;17.50;99.90;;;;;;5070151;28;20063;-47
2022/06/16 08:05:33;;;;;;;4.18;1.25;;;17.60;99.90;;;;;;5054632;28;20052;-48
2022/06/16 08:07:59;;;;;;;2.92;0.75;;;17.70;99.90;;;;;;5073939;28;20443;-50
2022/06/16 08:10:28;;;;;;;3.58;0.80;;;17.80;99.90;;;;;;5073949;28;20387;-46
2022/06/16 08:12:54;;;;;;;2.80;0.88;;;17.90;99.90;;;;;;5073957;28;20032;-46
2022/06/16 08:15:20;;;;;;;2.78;0.80;;;17.90;99.90;;;;;;5073670;28;20036;-46
2022/06/16 08:17:49;;;;;;;4.30;0.85;;;18.00;99.90;;;;;;5073908;28;20546;-48
2022/06/16 08:20:16;;;;;;;4.65;1.02;;;18.10;99.90;;;;;;5073600;28;20043;-48
2022/06/16 08:22:42;;;;;;;4.20;1.33;;;18.20;99.90;;;;;;5073583;28;20028;-47
2022/06/16 08:25:12;;;;;;;4.55;1.20;;;18.30;99.90;;;;;;5073569;28;20463;-47
2022/06/16 08:27:40;;;;;;;3.90;1.40;;;18.30;99.90;;;;;;5073273;28;20045;-49
2022/06/16 08:30:11;;;;;;;5.22;1.50;;;18.30;99.90;;;;;;5072520;28;20105;-46
2022/06/16 08:32:36;;;;;;;3.95;1.20;;;18.20;99.90;;;;;;5073242;28;20044;-49
2022/06/16 08:35:04;;;;;;;4.50;1.40;;;18.10;99.90;;;;;;5073418;28;20127;-48
2022/06/16 08:37:29;;;;;;;5.03;1.30;;;18.20;99.90;;;;;;5073462;28;20056;-49
2022/06/16 08:39:55;;;;;;;8.38;1.88;;;18.30;99.90;;;;;;5073377;28;20418;-46
2022/06/16 08:42:54;;;;;;;6.53;2.10;;;18.50;99.90;;;;;;5072858;28;20494;-45
2022/06/16 08:45:36;;;;;;;5.78;1.95;;;18.40;99.90;;;;;;5072710;28;20115;-46
2022/06/16 08:48:05;;;;;;;6.70;2.20;;;18.60;99.90;;;;;;5073725;28;20040;-45
2022/06/16 08:50:43;;;;;;;6.25;2.00;;;18.50;99.90;;;;;;5073006;28;20047;-49
2022/06/16 08:53:24;;;;;;;6.88;2.50;;;18.80;99.90;;;;;;5072532;28;20079;-47
2022/06/16 08:56:10;;;;;;;6.90;2.90;;;18.90;99.90;;;;;;5073244;28;20029;-47
2022/06/16 08:59:03;;;;;;;4.40;2.20;;;18.80;99.90;;;;;;5072867;28;20483;-46
2022/06/16 09:01:36;;;;;;;5.40;2.45;;;19.10;99.90;;;;;;5062444;28;20056;-49
2022/06/16 09:04:29;;;;;;;6.40;1.90;;;19.20;99.90;;;;;;5072821;28;20040;-46
2022/06/16 09:07:14;;;;;;;5.38;2.22;;;19.40;99.90;;;;;;5073143;28;20075;-49
2022/06/16 09:10:17;;;;;;;;;;;19.60;99.90;;;;;;5073489;28;20072;-48
2022/06/16 09:13:04;;;;;;;5.78;2.00;;;19.90;99.90;;;;;;5073015;28;20518;-48
2022/06/16 09:15:37;;;;;;;8.20;2.05;;;20.10;99.10;;;;;;5072348;28;20040;-48
2022/06/16 09:18:24;;;;;;;7.30;2.28;;;20.40;99.80;;;;;;5072984;28;20041;-48
2022/06/16 09:21:18;;;;;;;7.22;2.05;;;20.50;99.00;;;;;;5054490;28;20040;-46
2022/06/16 09:24:02;;;;;;;5.32;1.90;;;20.60;98.50;;;;;;5072693;28;20044;-48
2022/06/16 09:26:48;;;;;;;6.47;2.40;;;20.70;99.60;;;;;;5072469;28;20414;-49
2022/06/16 09:29:42;;;;;;;4.72;2.03;;;20.80;99.80;;;;;;5071697;28;20143;-48
2022/06/16 09:32:25;;;;;;;4.38;1.90;;;21.10;98.00;;;;;;5072640;28;20399;-48
2022/06/16 09:35:01;;;;;;;5.18;1.80;;;21.20;97.30;;;;;;5072625;28;20033;-46
2022/06/16 09:37:48;;;;;;;8.15;2.40;;;21.30;96.30;;;;;;5072552;28;20033;-47
2022/06/16 09:40:27;;;;;;;5.18;2.20;;;21.30;96.70;;;;;;5072456;28;20127;-48
2022/06/16 09:43:27;;;;;;;8.05;1.90;;;21.20;96.40;;;;;;5072019;28;20032;-46
2022/06/16 09:46:05;;;;;;;5.28;2.03;;;21.40;96.60;;;;;;5072239;28;20040;-48
2022/06/16 09:48:36;;;;;;;5.03;2.17;;;21.40;96.00;;;;;;5072542;28;20072;-46
2022/06/16 09:51:30;;;;;;;5.63;2.20;;;21.60;97.20;;;;;;5072348;28;20044;-45
2022/06/16 09:54:09;;;;;;;7.97;2.42;;;21.60;97.20;;;;;;5072116;28;20029;-47
2022/06/16 09:56:41;;;;;;;6.93;2.42;;;21.70;97.20;;;;;;5072064;28;20541;-50
2022/06/16 09:59:13;;;;;;;5.93;2.10;;;21.80;96.70;;;;;;5053722;28;20045;-46
2022/06/16 10:01:46;;;;;;;6.63;2.45;;;22.00;97.30;;;;;;5072116;28;20048;-48
2022/06/16 10:04:12;;;;;;;6.78;2.03;;;21.90;96.60;;;;;;5071901;28;20040;-49
2022/06/16 10:06:53;;;;;;;7.78;2.20;;;21.70;96.80;;;;;;5071816;28;20083;-46
2022/06/16 10:09:23;;;;;;;4.82;1.95;;;21.70;95.50;;;;;;5071574;28;20048;-46
2022/06/16 10:11:57;;;;;;;6.72;2.20;;;21.70;96.80;;;;;;5071255;28;20032;-47
2022/06/16 10:14:29;;;;;;;5.63;2.00;;;21.70;96.70;;;;;;5052978;28;20101;-48
2022/06/16 10:16:54;;;;;;;7.00;2.30;;;21.90;96.80;;;;;;5053575;28;20569;-50
2022/06/16 10:19:23;;;;;;;4.82;2.20;;;21.90;96.00;;;;;;5053511;28;20048;-45
2022/06/16 10:21:49;;;;;;;7.82;2.20;;;21.90;95.60;;;;;;5071726;28;20492;-46
2022/06/16 10:24:18;;;;;;;4.63;1.92;;;22.10;96.00;;;;;;5071275;28;20040;-49
2022/06/16 10:26:44;;;;;;;6.32;2.30;;;22.10;95.70;;;;;;5071121;28;20048;-46
2022/06/16 10:29:31;;;;;;;7.03;2.15;;;22.10;94.90;;;;;;5070604;28;20052;-48
2022/06/16 10:31:59;;;;;;;5.25;2.10;;;22.10;94.70;;;;;;5071329;28;20462;-50
2022/06/16 10:34:26;;;;;;;4.70;2.00;;;22.10;95.10;;;;;;5070985;28;20051;-47
2022/06/16 10:37:17;;;;;;;8.27;2.30;;;22.20;95.40;;;;;;5071037;28;20044;-50
2022/06/16 10:39:54;;;;;;;7.97;2.25;;;22.20;95.20;;;;;;5070895;28;20033;-48
2022/06/16 10:42:20;;;;;;;11.68;2.50;;;22.30;95.30;;;;;;5071282;28;20107;-46
2022/06/16 10:44:57;;;;;;;5.43;1.88;;;22.20;95.20;;;;;;5070846;28;20048;-48
2022/06/16 10:47:38;;;;;;;5.80;2.10;;;22.50;95.90;;;;;;5071194;28;20115;-47
2022/06/16 10:50:06;;;;;;;8.70;2.30;;;22.50;94.50;;;;;;5070811;28;20042;-47
2022/06/16 10:52:40;;;;;;;6.60;2.03;;;22.60;94.90;;;;;;5070246;28;20080;-47
2022/06/16 10:55:11;;;;;;;5.68;2.40;;;22.70;95.00;;;;;;5070865;28;20110;-48
2022/06/16 10:57:44;;;;;;;5.57;2.00;;;22.70;94.20;;;;;;5070715;28;20479;-47
2022/06/16 11:00:15;;;;;;;4.22;1.90;;;22.90;94.60;;;;;;5070901;28;20479;-48
2022/06/16 11:02:54;;;;;;;5.40;2.30;;;22.70;94.00;;;;;;5070735;28;20033;-47
2022/06/16 11:05:20;;;;;;;10.68;2.08;;;22.90;94.30;;;;;;5070745;28;20141;-46
2022/06/16 11:07:46;;;;;;;5.45;2.03;;;23.20;94.60;;;;;;5070615;28;20032;-46
2022/06/16 11:10:34;;;;;;;6.40;2.28;;;23.10;94.30;;;;;;5070347;28;20098;-49
2022/06/16 11:13:01;;;;;;;6.15;2.28;;;23.40;94.70;;;;;;5070793;28;20091;-49
2022/06/16 11:15:34;;;;;;;5.45;2.25;;;23.30;94.00;;;;;;5070035;28;20042;-47
2022/06/16 11:18:04;;;;;;;7.57;2.55;;;23.40;93.60;;;;;;5070591;28;20545;-47
2022/06/16 11:20:39;;;;;;;5.22;2.00;;;23.30;93.90;;;;;;5070353;28;20072;-46
2022/06/16 11:23:41;;;;;;;6.18;2.42;;;23.50;92.90;;;;;;5070047;28;20039;-46
2022/06/16 11:26:18;;;;;;;5.93;2.20;;;23.50;92.60;;;;;;5065221;28;20517;-48
2022/06/16 11:28:50;;;;;;;5.97;2.75;;;23.70;93.00;;;;;;5069974;28;20059;-48
2022/06/16 11:31:21;;;;;;;6.70;2.67;;;23.30;93.00;;;;;;5070288;28;20045;-48
2022/06/16 11:34:06;;;;;;;7.40;2.40;;;23.10;93.10;;;;;;5070269;28;20036;-47
2022/06/16 11:37:08;;;;;;;7.45;2.38;;;23.50;93.00;;;;;;5068964;28;20075;-46
2022/06/16 11:39:34;;;;;;;5.60;2.10;;;23.50;93.50;;;;;;5069986;28;20064;-47
2022/06/16 11:41:59;;;;;;;5.95;2.63;;;23.60;92.80;;;;;;5069630;28;20553;-46
2022/06/16 11:44:31;;;;;;;8.02;2.30;;;23.70;92.80;;;;;;5069666;28;20042;-47
2022/06/16 11:47:04;;;;;;;5.35;2.50;;;24.10;93.20;;;;;;5069875;28;20044;-47
2022/06/16 11:49:38;;;;;;;4.30;2.47;;;23.90;93.80;;;;;;5070213;28;20490;-46
2022/06/16 11:52:19;;;;;;;9.40;2.78;;;24.00;92.60;;;;;;5069772;28;20036;-49
2022/06/16 11:54:44;;;;;;;5.38;2.20;;;24.00;93.50;;;;;;5070286;28;20037;-46
2022/06/16 11:57:34;;;;;;;6.82;2.67;;;24.00;93.50;;;;;;5070237;28;20491;-48
2022/06/16 12:00:04;;;;;;;6.80;2.45;;;24.60;92.50;;;;;;5070111;28;20566;-46
2022/06/16 12:03:07;;;;;;;6.85;2.80;;;24.60;92.40;;;;;;5052053;28;20036;-45
2022/06/16 12:05:58;;;;;;;4.30;2.20;;;24.70;92.40;;;;;;5069652;28;20048;-48
2022/06/16 12:08:35;;;;;;;6.65;2.58;;;24.80;92.60;;;;;;5069862;28;20048;-47
2022/06/16 12:11:13;;;;;;;6.63;2.53;;;24.80;91.80;;;;;;5069719;28;20101;-47
2022/06/16 12:13:39;;;;;;;5.47;2.55;;;24.80;91.20;;;;;;5069434;28;20041;-46
2022/06/16 12:16:13;;;;;;;5.47;2.03;;;24.80;91.70;;;;;;5069595;28;20041;-47
2022/06/16 12:18:57;;;;;;;;;;;25.20;92.30;;;;;;5070175;28;20044;-47
2022/06/16 12:21:32;;;;;;;5.90;2.55;;;25.20;91.70;;;;;;5069517;28;19920;-46
2022/06/16 12:24:18;;;;;;;9.07;2.30;;;25.60;92.20;;;;;;5069766;28;20036;-49
2022/06/16 12:26:56;;;;;;;5.32;2.25;;;25.80;92.50;;;;;;5069994;28;20039;-47
2022/06/16 12:29:37;;;;;;;4.93;1.88;;;25.90;91.30;;;;;;5069450;28;20052;-46
2022/06/16 12:32:13;;;;;;;6.65;2.55;;;25.30;90.20;;;;;;5051608;28;20079;-45
2022/06/16 12:35:07;;;;;;;6.95;2.45;;;24.80;91.00;;;;;;5069328;28;20037;-46
2022/06/16 12:37:39;;;;;;;6.85;2.67;;;25.40;90.90;;;;;;5026490;28;20055;-49
2022/06/16 12:40:34;;;;;;;6.70;2.60;;;25.70;90.20;;;;;;5068563;28;20040;-50
2022/06/16 12:43:29;;;;;;;5.85;2.58;;;25.90;91.70;;;;;;5047984;28;20057;-46
2022/06/16 12:46:05;;;;;;;6.00;2.30;;;25.80;90.70;;;;;;5059909;28;20044;-49
2022/06/16 12:48:59;;;;;;;8.23;2.30;;;25.40;90.40;;;;;;5069737;28;20415;-49
2022/06/16 12:51:33;;;;;;;5.10;2.38;;;25.50;91.20;;;;;;5071877;28;20044;-47
2022/06/16 12:54:08;;;;;;;4.95;2.30;;;25.30;90.30;;;;;;5055079;28;20036;-45
2022/06/16 12:57:05;;;;;;;4.85;2.28;;;26.00;91.20;;;;;;5073845;28;20107;-45
2022/06/16 12:59:53;;;;;;;5.90;2.60;;;25.90;91.00;;;;;;5071512;28;20045;-47
2022/06/16 13:02:23;;;;;;;6.45;2.42;;;25.60;89.60;;;;;;5073169;28;20044;-47
2022/06/16 13:04:50;;;;;;;8.05;2.70;;;25.80;89.30;;;;;;5073199;28;20040;-48
2022/06/16 13:07:21;;;;;;;6.68;2.55;;;26.30;90.10;;;;;;5072902;28;20044;-47
2022/06/16 13:09:47;;;;;;;8.98;2.58;;;26.00;89.90;;;;;;5072660;28;20032;-47
2022/06/16 13:12:18;;;;;;;6.20;2.60;;;25.70;89.30;;;;;;5072580;28;20127;-47
2022/06/16 13:14:54;;;;;;;6.22;2.50;;;25.20;88.50;;;;;;5072271;28;20063;-47
2022/06/16 13:17:29;;;;;;;4.75;2.28;;;25.60;89.80;;;;;;5054922;28;20144;-46
2022/06/16 13:20:06;;;;;;;5.22;2.35;;;26.00;88.90;;;;;;5072812;28;20425;-48
2022/06/16 13:22:39;;;;;;;6.20;2.42;;;25.80;91.00;;;;;;5072447;28;20197;-48
2022/06/16 13:25:27;;;;;;;4.93;2.00;;;25.70;89.70;;;;;;5054042;28;20032;-45
2022/06/16 13:27:56;;;;;;;6.60;2.47;;;25.90;87.80;;;;;;5054751;28;20510;-45
2022/06/16 13:30:37;;;;;;;5.25;2.13;;;26.20;90.20;;;;;;5054190;28;20094;-48